sensor_id;sensor_type;location;lat;lon;timestamp;pressure;altitude;pressure_sealevel;temperature;humidity
44675;BME280;30388;52.038;-1.478;2023-03-21T00:01:15;65571.75;;;8.15;100.00
44675;BME280;30388;52.038;-1.478;2023-03-21T00:03:42;65613.80;;;8.90;100.00
44675;BME280;30388;52.038;-1.478;2023-03-21T00:06:11;65549.10;;;8.35;100.00
44675;BME280;30388;52.038;-1.478;2023-03-21T00:08:39;65528.98;;;7.83;100.00
44675;BME280;30388;52.038;-1.478;2023-03-21T00:11:08;65579.86;;;8.48;100.00
44675;BME280;30388;52.038;-1.478;2023-03-21T00:13:35;65523.58;;;7.76;100.00
44675;BME280;30388;52.038;-1.478;2023-03-21T00:16:04;65605.22;;;8.79;100.00
44675;BME280;30388;52.038;-1.478;2023-03-21T00:18:31;65562.76;;;8.25;100.00
44675;BME280;30388;52.038;-1.478;2023-03-21T00:21:01;65604.64;;;8.79;100.00
44675;BME280;30388;52.038;-1.478;2023-03-21T00:23:30;65581.61;;;8.28;100.00
44675;BME280;30388;52.038;-1.478;2023-03-21T00:25:57;65643.60;;;8.84;100.00
44675;BME280;30388;52.038;-1.478;2023-03-21T00:28:25;65566.07;;;8.30;100.00
44675;BME280;30388;52.038;-1.478;2023-03-21T00:30:56;65577.61;;;8.45;100.00
44675;BME280;30388;52.038;-1.478;2023-03-21T00:33:24;65622.76;;;8.80;100.00
44675;BME280;30388;52.038;-1.478;2023-03-21T00:35:51;65606.15;;;8.59;100.00
44675;BME280;30388;52.038;-1.478;2023-03-21T00:38:18;65603.26;;;8.77;100.00
44675;BME280;30388;52.038;-1.478;2023-03-21T00:40:46;65563.26;;;8.27;100.00
44675;BME280;30388;52.038;-1.478;2023-03-21T00:43:14;65571.41;;;8.64;100.00
44675;BME280;30388;52.038;-1.478;2023-03-21T00:45:42;65581.04;;;8.48;100.00
44675;BME280;30388;52.038;-1.478;2023-03-21T00:48:10;65541.35;;;7.99;100.00
44675;BME280;30388;52.038;-1.478;2023-03-21T00:50:37;65593.22;;;8.41;100.00
44675;BME280;30388;52.038;-1.478;2023-03-21T00:53:04;65552.14;;;8.13;100.00
44675;BME280;30388;52.038;-1.478;2023-03-21T00:55:32;65547.68;;;8.07;100.00
44675;BME280;30388;52.038;-1.478;2023-03-21T00:57:59;65558.51;;;8.21;100.00
44675;BME280;30388;52.038;-1.478;2023-03-21T01:00:27;65552.38;;;8.39;100.00
44675;BME280;30388;52.038;-1.478;2023-03-21T01:02:54;65590.12;;;8.60;100.00
44675;BME280;30388;52.038;-1.478;2023-03-21T01:05:21;65561.78;;;8.25;100.00
44675;BME280;30388;52.038;-1.478;2023-03-21T01:07:49;65564.61;;;8.28;100.00
44675;BME280;30388;52.038;-1.478;2023-03-21T01:10:16;65543.64;;;8.01;100.00
44675;BME280;30388;52.038;-1.478;2023-03-21T01:12:43;65458.53;;;7.20;100.00
44675;BME280;30388;52.038;-1.478;2023-03-21T01:15:10;65512.96;;;7.63;100.00
44675;BME280;30388;52.038;-1.478;2023-03-21T01:17:37;65530.20;;;8.12;100.00
44675;BME280;30388;52.038;-1.478;2023-03-21T01:20:06;65573.21;;;8.39;100.00
44675;BME280;30388;52.038;-1.478;2023-03-21T01:22:33;65517.65;;;7.69;100.00
44675;BME280;30388;52.038;-1.478;2023-03-21T01:25:01;65576.05;;;8.43;100.00
44675;BME280;30388;52.038;-1.478;2023-03-21T01:27:28;65604.28;;;8.79;100.00
44675;BME280;30388;52.038;-1.478;2023-03-21T01:29:55;65587.80;;;8.58;100.00
44675;BME280;30388;52.038;-1.478;2023-03-21T01:32:22;65605.25;;;8.58;100.00
44675;BME280;30388;52.038;-1.478;2023-03-21T01:34:49;65551.53;;;8.12;100.00
44675;BME280;30388;52.038;-1.478;2023-03-21T01:37:16;65586.09;;;8.56;100.00
44675;BME280;30388;52.038;-1.478;2023-03-21T01:39:43;65510.51;;;7.60;100.00
44675;BME280;30388;52.038;-1.478;2023-03-21T01:42:12;65500.51;;;7.47;100.00
44675;BME280;30388;52.038;-1.478;2023-03-21T01:44:57;65526.80;;;7.81;100.00
44675;BME280;30388;52.038;-1.478;2023-03-21T01:47:25;65544.00;;;8.01;100.00
44675;BME280;30388;52.038;-1.478;2023-03-21T01:49:55;65553.00;;;8.14;100.00
44675;BME280;30388;52.038;-1.478;2023-03-21T01:52:26;65551.02;;;7.90;100.00
44675;BME280;30388;52.038;-1.478;2023-03-21T01:54:55;65568.58;;;8.34;100.00
44675;BME280;30388;52.038;-1.478;2023-03-21T01:57:27;65552.11;;;8.12;100.00
44675;BME280;30388;52.038;-1.478;2023-03-21T01:59:56;65542.31;;;8.00;100.00
44675;BME280;30388;52.038;-1.478;2023-03-21T02:02:26;65480.18;;;7.48;100.00
44675;BME280;30388;52.038;-1.478;2023-03-21T02:04:55;65472.52;;;7.62;100.00
44675;BME280;30388;52.038;-1.478;2023-03-21T02:07:26;65555.49;;;8.43;100.00
44675;BME280;30388;52.038;-1.478;2023-03-21T02:09:55;65565.24;;;8.56;100.00
44675;BME280;30388;52.038;-1.478;2023-03-21T02:12:24;65531.53;;;7.87;100.00
44675;BME280;30388;52.038;-1.478;2023-03-21T02:14:52;65498.50;;;7.93;100.00
44675;BME280;30388;52.038;-1.478;2023-03-21T02:17:25;65487.59;;;7.79;100.00
44675;BME280;30388;52.038;-1.478;2023-03-21T02:22:39;65523.19;;;8.73;100.00
44675;BME280;30388;52.038;-1.478;2023-03-21T02:25:29;65455.56;;;6.90;100.00
44675;BME280;30388;52.038;-1.478;2023-03-21T02:28:09;65502.93;;;7.99;100.00
44675;BME280;30388;52.038;-1.478;2023-03-21T02:30:48;65535.59;;;7.92;100.00
44675;BME280;30388;52.038;-1.478;2023-03-21T02:35:45;65516.57;;;8.65;100.00
44675;BME280;30388;52.038;-1.478;2023-03-21T02:38:19;65522.70;;;7.75;100.00
44675;BME280;30388;52.038;-1.478;2023-03-21T02:40:55;65517.25;;;8.17;100.00
44675;BME280;30388;52.038;-1.478;2023-03-21T02:43:30;65469.63;;;7.35;100.00
44675;BME280;30388;52.038;-1.478;2023-03-21T02:46:02;65528.91;;;7.83;100.00
44675;BME280;30388;52.038;-1.478;2023-03-21T02:48:35;65478.89;;;7.47;100.00
44675;BME280;30388;52.038;-1.478;2023-03-21T02:51:04;65446.18;;;7.28;100.00
44675;BME280;30388;52.038;-1.478;2023-03-21T02:53:36;65503.57;;;7.78;100.00
44675;BME280;30388;52.038;-1.478;2023-03-21T02:56:04;65387.85;;;6.53;100.00
44675;BME280;30388;52.038;-1.478;2023-03-21T02:58:32;65498.41;;;7.94;100.00
44675;BME280;30388;52.038;-1.478;2023-03-21T03:00:59;65494.53;;;7.67;100.00
44675;BME280;30388;52.038;-1.478;2023-03-21T03:03:26;65486.50;;;7.57;100.00
44675;BME280;30388;52.038;-1.478;2023-03-21T03:05:55;65525.41;;;8.06;100.00
44675;BME280;30388;52.038;-1.478;2023-03-21T03:08:31;65471.19;;;7.11;100.00
44675;BME280;30388;52.038;-1.478;2023-03-21T03:11:09;65501.72;;;7.76;100.00
44675;BME280;30388;52.038;-1.478;2023-03-21T03:13:53;65604.82;;;8.57;100.00
44675;BME280;30388;52.038;-1.478;2023-03-21T03:16:28;65596.01;;;8.47;100.00
44675;BME280;30388;52.038;-1.478;2023-03-21T03:18:59;65527.49;;;7.81;100.00
44675;BME280;30388;52.038;-1.478;2023-03-21T03:21:29;65538.01;;;7.95;100.00
44675;BME280;30388;52.038;-1.478;2023-03-21T03:24:01;65540.31;;;7.98;100.00
44675;BME280;30388;52.038;-1.478;2023-03-21T03:26:34;65438.31;;;7.18;100.00
44675;BME280;30388;52.038;-1.478;2023-03-21T03:29:06;65507.26;;;7.83;100.00
44675;BME280;30388;52.038;-1.478;2023-03-21T03:31:37;65509.70;;;8.08;100.00
44675;BME280;30388;52.038;-1.478;2023-03-21T03:34:08;65514.36;;;7.91;100.00
44675;BME280;30388;52.038;-1.478;2023-03-21T03:36:39;65491.87;;;7.36;100.00
44675;BME280;30388;52.038;-1.478;2023-03-21T03:39:10;65514.18;;;7.92;100.00
44675;BME280;30388;52.038;-1.478;2023-03-21T03:41:43;65518.91;;;7.97;100.00
44675;BME280;30388;52.038;-1.478;2023-03-21T03:44:12;65583.44;;;8.52;100.00
44675;BME280;30388;52.038;-1.478;2023-03-21T03:46:43;65547.16;;;8.06;100.00
44675;BME280;30388;52.038;-1.478;2023-03-21T03:49:18;65452.67;;;7.13;100.00
44675;BME280;30388;52.038;-1.478;2023-03-21T03:51:50;65448.01;;;7.30;100.00
44675;BME280;30388;52.038;-1.478;2023-03-21T03:54:21;65541.64;;;8.00;100.00
44675;BME280;30388;52.038;-1.478;2023-03-21T03:56:49;65441.74;;;7.00;100.00
44675;BME280;30388;52.038;-1.478;2023-03-21T03:59:16;65501.36;;;7.97;100.00
44675;BME280;30388;52.038;-1.478;2023-03-21T04:01:48;65545.42;;;8.04;100.00
44675;BME280;30388;52.038;-1.478;2023-03-21T04:04:15;65610.09;;;8.86;100.00
44675;BME280;30388;52.038;-1.478;2023-03-21T04:06:42;65537.92;;;7.94;100.00
44675;BME280;30388;52.038;-1.478;2023-03-21T04:09:09;65552.07;;;8.12;100.00
44675;BME280;30388;52.038;-1.478;2023-03-21T04:11:36;65557.45;;;8.19;100.00
44675;BME280;30388;52.038;-1.478;2023-03-21T04:14:04;65602.80;;;8.54;100.00
44675;BME280;30388;52.038;-1.478;2023-03-21T04:16:30;65558.08;;;8.21;100.00
44675;BME280;30388;52.038;-1.478;2023-03-21T04:18:58;65537.41;;;7.94;100.00
44675;BME280;30388;52.038;-1.478;2023-03-21T04:21:26;65497.22;;;7.70;100.00
44675;BME280;30388;52.038;-1.478;2023-03-21T04:23:54;65497.76;;;7.44;100.00
44675;BME280;30388;52.038;-1.478;2023-03-21T04:26:21;65569.01;;;8.34;100.00
44675;BME280;30388;52.038;-1.478;2023-03-21T04:28:48;65583.66;;;8.53;100.00
44675;BME280;30388;52.038;-1.478;2023-03-21T04:31:15;65595.57;;;8.68;100.00
44675;BME280;30388;52.038;-1.478;2023-03-21T04:33:43;65566.85;;;8.32;100.00
44675;BME280;30388;52.038;-1.478;2023-03-21T04:36:10;65463.50;;;7.49;100.00
44675;BME280;30388;52.038;-1.478;2023-03-21T04:38:37;65489.66;;;7.33;100.00
44675;BME280;30388;52.038;-1.478;2023-03-21T04:41:05;65502.78;;;7.77;100.00
44675;BME280;30388;52.038;-1.478;2023-03-21T04:43:31;65480.81;;;7.50;100.00
44675;BME280;30388;52.038;-1.478;2023-03-21T04:45:59;65439.10;;;7.19;100.00
44675;BME280;30388;52.038;-1.478;2023-03-21T04:48:26;65516.12;;;8.16;100.00
44675;BME280;30388;52.038;-1.478;2023-03-21T04:50:53;65575.45;;;8.42;100.00
44675;BME280;30388;52.038;-1.478;2023-03-21T04:53:20;65488.55;;;7.33;100.00
44675;BME280;30388;52.038;-1.478;2023-03-21T04:55:48;65540.38;;;7.98;100.00
44675;BME280;30388;52.038;-1.478;2023-03-21T04:58:15;65531.53;;;7.88;100.00
44675;BME280;30388;52.038;-1.478;2023-03-21T05:00:41;65543.56;;;8.03;100.00
44675;BME280;30388;52.038;-1.478;2023-03-21T05:03:08;65565.74;;;8.08;100.00
44675;BME280;30388;52.038;-1.478;2023-03-21T05:05:35;65552.86;;;8.14;100.00
44675;BME280;30388;52.038;-1.478;2023-03-21T05:08:03;65462.35;;;7.48;100.00
44675;BME280;30388;52.038;-1.478;2023-03-21T05:10:31;65564.89;;;8.29;100.00
44675;BME280;30388;52.038;-1.478;2023-03-21T05:12:59;65547.35;;;8.08;100.00
44675;BME280;30388;52.038;-1.478;2023-03-21T05:15:26;65583.26;;;8.30;100.00
44675;BME280;30388;52.038;-1.478;2023-03-21T05:17:53;65567.02;;;8.59;100.00
44675;BME280;30388;52.038;-1.478;2023-03-21T05:20:20;65525.22;;;8.05;100.00
44675;BME280;30388;52.038;-1.478;2023-03-21T05:22:48;65503.64;;;7.52;100.00
44675;BME280;30388;52.038;-1.478;2023-03-21T05:25:15;65557.10;;;8.20;100.00
44675;BME280;30388;52.038;-1.478;2023-03-21T05:27:43;65514.34;;;7.65;100.00
44675;BME280;30388;52.038;-1.478;2023-03-21T05:30:12;65451.28;;;7.34;100.00
44675;BME280;30388;52.038;-1.478;2023-03-21T05:32:40;65599.62;;;8.72;100.00
44675;BME280;30388;52.038;-1.478;2023-03-21T05:35:08;65606.01;;;8.81;100.00
44675;BME280;30388;52.038;-1.478;2023-03-21T05:37:35;65577.59;;;8.46;100.00
44675;BME280;30388;52.038;-1.478;2023-03-21T05:40:04;65623.78;;;8.60;100.00
44675;BME280;30388;52.038;-1.478;2023-03-21T05:42:31;65589.65;;;8.60;100.00
44675;BME280;30388;52.038;-1.478;2023-03-21T05:44:59;65561.12;;;8.24;100.00
44675;BME280;30388;52.038;-1.478;2023-03-21T05:47:26;65563.04;;;8.27;100.00
44675;BME280;30388;52.038;-1.478;2023-03-21T05:49:53;65524.16;;;7.77;100.00
44675;BME280;30388;52.038;-1.478;2023-03-21T05:52:20;65525.00;;;7.79;100.00
44675;BME280;30388;52.038;-1.478;2023-03-21T05:54:48;65503.05;;;7.51;100.00
44675;BME280;30388;52.038;-1.478;2023-03-21T05:57:15;65561.57;;;8.25;100.00
44675;BME280;30388;52.038;-1.478;2023-03-21T05:59:42;65473.49;;;7.40;100.00
44675;BME280;30388;52.038;-1.478;2023-03-21T06:02:10;65552.50;;;8.14;100.00
44675;BME280;30388;52.038;-1.478;2023-03-21T06:04:37;65560.43;;;8.24;100.00
44675;BME280;30388;52.038;-1.478;2023-03-21T06:07:05;65571.05;;;8.37;100.00
44675;BME280;30388;52.038;-1.478;2023-03-21T06:09:32;65633.87;;;8.72;100.00
44675;BME280;30388;52.038;-1.478;2023-03-21T06:12:00;65589.38;;;8.61;100.00
44675;BME280;30388;52.038;-1.478;2023-03-21T06:14:26;65641.46;;;9.26;100.00
44675;BME280;30388;52.038;-1.478;2023-03-21T06:16:53;65682.39;;;9.33;100.00
44675;BME280;30388;52.038;-1.478;2023-03-21T06:19:21;65695.62;;;9.51;100.00
44675;BME280;30388;52.038;-1.478;2023-03-21T06:21:48;65655.54;;;9.00;100.00
44675;BME280;30388;52.038;-1.478;2023-03-21T06:24:15;65658.92;;;9.04;100.00
44675;BME280;30388;52.038;-1.478;2023-03-21T06:26:43;65556.11;;;8.19;100.00
44675;BME280;30388;52.038;-1.478;2023-03-21T06:29:10;65550.99;;;8.12;100.00
44675;BME280;30388;52.038;-1.478;2023-03-21T06:31:36;65655.38;;;8.99;100.00
44675;BME280;30388;52.038;-1.478;2023-03-21T06:34:03;65613.98;;;8.91;100.00
44675;BME280;30388;52.038;-1.478;2023-03-21T06:36:31;65604.06;;;8.57;100.00
44675;BME280;30388;52.038;-1.478;2023-03-21T06:38:58;65616.37;;;8.95;100.00
44675;BME280;30388;52.038;-1.478;2023-03-21T06:41:25;65657.05;;;9.46;100.00
44675;BME280;30388;52.038;-1.478;2023-03-21T06:43:53;65666.54;;;9.14;100.00
44675;BME280;30388;52.038;-1.478;2023-03-21T06:46:20;65599.35;;;8.73;100.00
44675;BME280;30388;52.038;-1.478;2023-03-21T06:48:48;65634.26;;;8.95;100.00
44675;BME280;30388;52.038;-1.478;2023-03-21T06:51:15;65605.57;;;8.81;100.00
44675;BME280;30388;52.038;-1.478;2023-03-21T06:53:43;65559.46;;;8.23;100.00
44675;BME280;30388;52.038;-1.478;2023-03-21T06:56:11;65587.79;;;8.58;100.00
44675;BME280;30388;52.038;-1.478;2023-03-21T06:58:39;65499.53;;;7.46;100.00
44675;BME280;30388;52.038;-1.478;2023-03-21T07:01:07;65603.38;;;8.78;100.00
44675;BME280;30388;52.038;-1.478;2023-03-21T07:03:34;65624.13;;;8.82;100.00
44675;BME280;30388;52.038;-1.478;2023-03-21T07:06:04;65604.71;;;8.57;100.00
44675;BME280;30388;52.038;-1.478;2023-03-21T07:08:31;65626.99;;;8.86;100.00
44675;BME280;30388;52.038;-1.478;2023-03-21T07:10:58;65650.71;;;9.16;100.00
44675;BME280;30388;52.038;-1.478;2023-03-21T07:13:26;65617.94;;;8.74;100.00
44675;BME280;30388;52.038;-1.478;2023-03-21T07:15:53;65620.26;;;8.55;100.00
44675;BME280;30388;52.038;-1.478;2023-03-21T07:18:20;65604.51;;;8.35;100.00
44675;BME280;30388;52.038;-1.478;2023-03-21T07:20:50;65643.05;;;9.06;100.00
44675;BME280;30388;52.038;-1.478;2023-03-21T07:23:18;65601.18;;;8.53;100.00
44675;BME280;30388;52.038;-1.478;2023-03-21T07:25:48;65676.80;;;9.27;100.00
44675;BME280;30388;52.038;-1.478;2023-03-21T07:28:15;65651.17;;;8.94;100.00
44675;BME280;30388;52.038;-1.478;2023-03-21T07:30:44;65683.02;;;9.34;100.00
44675;BME280;30388;52.038;-1.478;2023-03-21T07:33:12;65656.73;;;9.24;100.00
44675;BME280;30388;52.038;-1.478;2023-03-21T07:35:39;65617.81;;;8.74;100.00
44675;BME280;30388;52.038;-1.478;2023-03-21T07:38:06;65712.46;;;9.45;100.00
44675;BME280;30388;52.038;-1.478;2023-03-21T07:40:33;65693.08;;;9.47;100.00
44675;BME280;30388;52.038;-1.478;2023-03-21T07:43:01;65729.43;;;9.92;100.00
44675;BME280;30388;52.038;-1.478;2023-03-21T07:45:27;65685.81;;;9.38;100.00
44675;BME280;30388;52.038;-1.478;2023-03-21T07:47:54;65678.26;;;9.28;100.00
44675;BME280;30388;52.038;-1.478;2023-03-21T07:50:22;65681.49;;;9.32;100.00
44675;BME280;30388;52.038;-1.478;2023-03-21T07:52:49;65687.97;;;9.41;100.00
44675;BME280;30388;52.038;-1.478;2023-03-21T07:55:15;65688.42;;;9.41;100.00
44675;BME280;30388;52.038;-1.478;2023-03-21T07:57:43;65729.34;;;9.44;100.00
44675;BME280;30388;52.038;-1.478;2023-03-21T08:00:11;65756.37;;;9.78;100.00
44675;BME280;30388;52.038;-1.478;2023-03-21T08:02:39;65677.27;;;9.01;100.00
44675;BME280;30388;52.038;-1.478;2023-03-21T08:05:07;65615.42;;;8.48;100.00
44675;BME280;30388;52.038;-1.478;2023-03-21T08:07:35;65703.85;;;9.60;100.00
44675;BME280;30388;52.038;-1.478;2023-03-21T08:10:02;65658.42;;;9.47;100.00
44675;BME280;30388;52.038;-1.478;2023-03-21T08:12:30;65670.91;;;9.42;100.00
44675;BME280;30388;52.038;-1.478;2023-03-21T08:14:57;65648.71;;;9.36;100.00
44675;BME280;30388;52.038;-1.478;2023-03-21T08:17:24;65694.93;;;9.50;100.00
44675;BME280;30388;52.038;-1.478;2023-03-21T08:19:51;65733.07;;;9.72;100.00
44675;BME280;30388;52.038;-1.478;2023-03-21T08:22:19;65720.57;;;10.03;100.00
44675;BME280;30388;52.038;-1.478;2023-03-21T08:24:46;65681.84;;;9.56;100.00
44675;BME280;30388;52.038;-1.478;2023-03-21T08:27:13;65653.12;;;9.41;100.00
44675;BME280;30388;52.038;-1.478;2023-03-21T08:29:40;65590.21;;;8.61;100.00
44675;BME280;30388;52.038;-1.478;2023-03-21T08:32:08;65630.01;;;8.89;100.00
44675;BME280;30388;52.038;-1.478;2023-03-21T08:34:35;65670.00;;;9.18;100.00
44675;BME280;30388;52.038;-1.478;2023-03-21T08:37:02;65665.15;;;9.34;100.00
44675;BME280;30388;52.038;-1.478;2023-03-21T08:39:29;65678.53;;;9.28;100.00
44675;BME280;30388;52.038;-1.478;2023-03-21T08:41:56;65643.76;;;9.29;100.00
44675;BME280;30388;52.038;-1.478;2023-03-21T08:44:23;65626.27;;;8.84;100.00
44675;BME280;30388;52.038;-1.478;2023-03-21T08:46:49;65618.44;;;8.98;100.00
44675;BME280;30388;52.038;-1.478;2023-03-21T08:49:16;65612.02;;;8.89;100.00
44675;BME280;30388;52.038;-1.478;2023-03-21T08:51:44;65615.11;;;8.93;100.00
44675;BME280;30388;52.038;-1.478;2023-03-21T08:54:18;65634.30;;;9.17;100.00
44675;BME280;30388;52.038;-1.478;2023-03-21T08:56:46;65643.96;;;9.29;100.00
44675;BME280;30388;52.038;-1.478;2023-03-21T08:59:14;65607.27;;;8.83;100.00
44675;BME280;30388;52.038;-1.478;2023-03-21T09:01:41;65574.09;;;8.41;100.00
44675;BME280;30388;52.038;-1.478;2023-03-21T09:04:09;65641.53;;;9.26;100.00
44675;BME280;30388;52.038;-1.478;2023-03-21T09:06:37;65627.62;;;9.09;100.00
44675;BME280;30388;52.038;-1.478;2023-03-21T09:09:04;65699.55;;;9.55;100.00
44675;BME280;30388;52.038;-1.478;2023-03-21T09:11:31;65651.16;;;9.39;100.00
44675;BME280;30388;52.038;-1.478;2023-03-21T09:13:58;65727.43;;;9.91;100.00
44675;BME280;30388;52.038;-1.478;2023-03-21T09:16:25;65707.22;;;9.88;100.00
44675;BME280;30388;52.038;-1.478;2023-03-21T09:18:53;65743.34;;;10.11;100.00
44675;BME280;30388;52.038;-1.478;2023-03-21T09:21:21;65741.77;;;10.09;100.00
44675;BME280;30388;52.038;-1.478;2023-03-21T09:23:50;65744.33;;;10.11;100.00
44675;BME280;30388;52.038;-1.478;2023-03-21T09:26:17;65800.36;;;10.34;100.00
44675;BME280;30388;52.038;-1.478;2023-03-21T09:28:45;65777.45;;;10.05;100.00
44675;BME280;30388;52.038;-1.478;2023-03-21T09:31:13;65758.31;;;10.29;100.00
44675;BME280;30388;52.038;-1.478;2023-03-21T09:33:41;65739.23;;;10.28;100.00
44675;BME280;30388;52.038;-1.478;2023-03-21T09:36:10;65770.67;;;10.19;100.00
44675;BME280;30388;52.038;-1.478;2023-03-21T09:38:37;65793.04;;;10.24;100.00
44675;BME280;30388;52.038;-1.478;2023-03-21T09:41:11;65836.04;;;10.79;100.00
44675;BME280;30388;52.038;-1.478;2023-03-21T09:43:53;65800.16;;;10.82;100.00
44675;BME280;30388;52.038;-1.478;2023-03-21T09:46:29;65742.02;;;10.31;100.00
44675;BME280;30388;52.038;-1.478;2023-03-21T09:49:01;65748.58;;;9.90;100.00
44675;BME280;30388;52.038;-1.478;2023-03-21T09:51:33;65792.41;;;10.24;100.00
44675;BME280;30388;52.038;-1.478;2023-03-21T09:54:05;65705.69;;;10.08;100.00
44675;BME280;30388;52.038;-1.478;2023-03-21T09:56:35;65742.08;;;10.09;100.00
44675;BME280;30388;52.038;-1.478;2023-03-21T09:59:06;65718.80;;;9.80;100.00
44675;BME280;30388;52.038;-1.478;2023-03-21T10:01:36;65734.89;;;9.74;100.00
44675;BME280;30388;52.038;-1.478;2023-03-21T10:04:09;65788.01;;;10.68;100.00
44675;BME280;30388;52.038;-1.478;2023-03-21T10:06:40;65904.43;;;11.38;100.00
44675;BME280;30388;52.038;-1.478;2023-03-21T10:09:13;65802.04;;;10.36;100.00
44675;BME280;30388;52.038;-1.478;2023-03-21T10:11:43;65839.19;;;10.83;100.00
44675;BME280;30388;52.038;-1.478;2023-03-21T10:14:17;65706.41;;;9.86;100.00
44675;BME280;30388;52.038;-1.478;2023-03-21T10:16:49;65787.27;;;10.39;100.00
44675;BME280;30388;52.038;-1.478;2023-03-21T10:19:18;65658.42;;;9.03;100.00
44675;BME280;30388;52.038;-1.478;2023-03-21T10:21:48;65734.91;;;10.00;100.00
44675;BME280;30388;52.038;-1.478;2023-03-21T10:24:18;65811.84;;;10.48;100.00
44675;BME280;30388;52.038;-1.478;2023-03-21T10:26:48;65889.51;;;11.20;100.00
44675;BME280;30388;52.038;-1.478;2023-03-21T10:29:18;65880.52;;;11.35;100.00
44675;BME280;30388;52.038;-1.478;2023-03-21T10:31:46;66019.84;;;12.62;100.00
44675;BME280;30388;52.038;-1.478;2023-03-21T10:34:17;66087.15;;;13.24;100.00
44675;BME280;30388;52.038;-1.478;2023-03-21T10:36:46;66066.76;;;13.22;100.00
44675;BME280;30388;52.038;-1.478;2023-03-21T10:39:22;65999.43;;;12.37;100.00
44675;BME280;30388;52.038;-1.478;2023-03-21T10:41:51;65951.63;;;11.98;100.00
44675;BME280;30388;52.038;-1.478;2023-03-21T10:44:19;65857.63;;;11.06;100.00
44675;BME280;30388;52.038;-1.478;2023-03-21T10:46:53;65959.17;;;12.08;100.00
44675;BME280;30388;52.038;-1.478;2023-03-21T10:49:21;65851.17;;;10.97;100.00
44675;BME280;30388;52.038;-1.478;2023-03-21T10:51:51;65827.24;;;10.68;100.00
44675;BME280;30388;52.038;-1.478;2023-03-21T10:54:21;65838.08;;;10.81;100.00
44675;BME280;30388;52.038;-1.478;2023-03-21T10:56:55;65846.84;;;10.92;100.00
44675;BME280;30388;52.038;-1.478;2023-03-21T10:59:25;65971.01;;;12.23;100.00
44675;BME280;30388;52.038;-1.478;2023-03-21T11:01:55;66059.92;;;12.63;100.00
44675;BME280;30388;52.038;-1.478;2023-03-21T11:04:26;65997.17;;;12.33;100.00
44675;BME280;30388;52.038;-1.478;2023-03-21T11:06:57;65942.01;;;11.86;100.00
44675;BME280;30388;52.038;-1.478;2023-03-21T11:09:26;66038.68;;;12.85;100.00
44675;BME280;30388;52.038;-1.478;2023-03-21T11:12:10;66128.85;;;13.99;100.00
44675;BME280;30388;52.038;-1.478;2023-03-21T11:14:40;66057.07;;;13.08;100.00
44675;BME280;30388;52.038;-1.478;2023-03-21T11:17:19;66060.19;;;13.12;100.00
44675;BME280;30388;52.038;-1.478;2023-03-21T11:19:51;66028.75;;;12.94;100.00
44675;BME280;30388;52.038;-1.478;2023-03-21T11:22:20;65986.89;;;12.68;100.00
44675;BME280;30388;52.038;-1.478;2023-03-21T11:24:53;65920.39;;;11.58;100.00
44675;BME280;30388;52.038;-1.478;2023-03-21T11:27:24;65870.40;;;11.70;100.00
44675;BME280;30388;52.038;-1.478;2023-03-21T11:29:53;65863.45;;;11.13;100.00
44675;BME280;30388;52.038;-1.478;2023-03-21T11:32:24;65849.39;;;10.95;100.00
44675;BME280;30388;52.038;-1.478;2023-03-21T11:34:56;65926.43;;;12.15;100.00
44675;BME280;30388;52.038;-1.478;2023-03-21T11:37:30;65917.79;;;12.03;100.00
44675;BME280;30388;52.038;-1.478;2023-03-21T11:40:13;65939.54;;;11.82;100.00
44675;BME280;30388;52.038;-1.478;2023-03-21T11:42:46;65997.65;;;12.33;100.00
44675;BME280;30388;52.038;-1.478;2023-03-21T11:45:16;66088.36;;;13.26;100.00
44675;BME280;30388;52.038;-1.478;2023-03-21T11:47:45;66022.49;;;12.65;100.00
44675;BME280;30388;52.038;-1.478;2023-03-21T11:50:19;65962.57;;;11.89;100.00
44675;BME280;30388;52.038;-1.478;2023-03-21T11:52:57;65994.47;;;12.30;100.00
44675;BME280;30388;52.038;-1.478;2023-03-21T11:55:35;65986.69;;;12.20;100.00
44675;BME280;30388;52.038;-1.478;2023-03-21T11:58:17;65946.97;;;11.92;100.00
44675;BME280;30388;52.038;-1.478;2023-03-21T12:00:53;66021.97;;;12.86;100.00
44675;BME280;30388;52.038;-1.478;2023-03-21T12:03:46;66170.89;;;14.02;100.00
44675;BME280;30388;52.038;-1.478;2023-03-21T12:06:21;66188.32;;;14.26;100.00
44675;BME280;30388;52.038;-1.478;2023-03-21T12:09:05;66212.79;;;14.34;100.00
44675;BME280;30388;52.038;-1.478;2023-03-21T12:11:44;66128.29;;;13.49;100.00
44675;BME280;30388;52.038;-1.478;2023-03-21T12:14:20;66061.29;;;12.65;100.00
44675;BME280;30388;52.038;-1.478;2023-03-21T12:17:01;66049.05;;;12.50;100.00
44675;BME280;30388;52.038;-1.478;2023-03-21T12:19:42;65968.96;;;11.97;100.00
44675;BME280;30388;52.038;-1.478;2023-03-21T12:22:22;65962.15;;;11.88;100.00
44675;BME280;30388;52.038;-1.478;2023-03-21T12:24:54;66008.79;;;12.70;100.00
44675;BME280;30388;52.038;-1.478;2023-03-21T12:27:30;65963.69;;;11.90;100.00
44675;BME280;30388;52.038;-1.478;2023-03-21T12:30:10;66066.41;;;12.71;100.00
44675;BME280;30388;52.038;-1.478;2023-03-21T12:32:51;66052.12;;;12.80;100.00
44675;BME280;30388;52.038;-1.478;2023-03-21T12:35:35;66012.33;;;12.52;100.00
44675;BME280;30388;52.038;-1.478;2023-03-21T12:38:13;66028.87;;;12.73;100.00
44675;BME280;30388;52.038;-1.478;2023-03-21T12:40:50;65924.61;;;11.64;100.00
44675;BME280;30388;52.038;-1.478;2023-03-21T12:43:27;65928.60;;;11.68;100.00
44675;BME280;30388;52.038;-1.478;2023-03-21T12:45:58;65955.60;;;11.80;100.00
44675;BME280;30388;52.038;-1.478;2023-03-21T12:48:35;65785.87;;;10.37;100.00
44675;BME280;30388;52.038;-1.478;2023-03-21T12:51:10;65817.95;;;10.56;100.00
44675;BME280;30388;52.038;-1.478;2023-03-21T12:53:48;66024.57;;;12.67;100.00
44675;BME280;30388;52.038;-1.478;2023-03-21T12:56:19;66070.94;;;13.26;100.00
44675;BME280;30388;52.038;-1.478;2023-03-21T12:58:53;66065.90;;;13.20;100.00
44675;BME280;30388;52.038;-1.478;2023-03-21T13:01:22;66038.84;;;12.85;100.00
44675;BME280;30388;52.038;-1.478;2023-03-21T13:05:51;66154.07;;;14.31;100.00
44675;BME280;30388;52.038;-1.478;2023-03-21T13:08:23;66063.46;;;13.17;100.00